sensor_id;sensor_type;location;lat;lon;timestamp;temperature;humidity
64499;SHT31;51087;55.718;21.122;2023-04-30T00:01:32;7.69;93.20
64499;SHT31;51087;55.718;21.122;2023-04-30T00:03:57;7.58;93.31
64499;SHT31;51087;55.718;21.122;2023-04-30T00:06:23;7.55;93.08
64499;SHT31;51087;55.718;21.122;2023-04-30T00:08:48;7.38;93.44
64499;SHT31;51087;55.718;21.122;2023-04-30T00:11:13;7.28;93.57
64499;SHT31;51087;55.718;21.122;2023-04-30T00:13:39;7.22;93.34
64499;SHT31;51087;55.718;21.122;2023-04-30T00:16:07;7.10;93.85
64499;SHT31;51087;55.718;21.122;2023-04-30T00:18:32;7.10;93.14
64499;SHT31;51087;55.718;21.122;2023-04-30T00:20:57;7.00;93.57
64499;SHT31;51087;55.718;21.122;2023-04-30T00:23:23;6.97;93.50
64499;SHT31;51087;55.718;21.122;2023-04-30T00:25:48;6.80;94.32
64499;SHT31;51087;55.718;21.122;2023-04-30T00:28:13;6.76;94.22
64499;SHT31;51087;55.718;21.122;2023-04-30T00:30:39;6.83;92.81
64499;SHT31;51087;55.718;21.122;2023-04-30T00:33:04;6.72;92.82
64499;SHT31;51087;55.718;21.122;2023-04-30T00:35:30;6.69;92.84
64499;SHT31;51087;55.718;21.122;2023-04-30T00:37:55;6.61;93.46
64499;SHT31;51087;55.718;21.122;2023-04-30T00:40:20;6.61;93.35
64499;SHT31;51087;55.718;21.122;2023-04-30T00:42:46;6.56;93.82
64499;SHT31;51087;55.718;21.122;2023-04-30T00:45:13;6.55;93.40
64499;SHT31;51087;55.718;21.122;2023-04-30T00:47:38;6.56;93.34
64499;SHT31;51087;55.718;21.122;2023-04-30T00:50:05;6.62;93.21
64499;SHT31;51087;55.718;21.122;2023-04-30T00:52:30;6.66;92.86
64499;SHT31;51087;55.718;21.122;2023-04-30T00:54:56;6.62;93.51
64499;SHT31;51087;55.718;21.122;2023-04-30T00:57:21;6.59;93.50
64499;SHT31;51087;55.718;21.122;2023-04-30T00:59:47;6.63;93.35
64499;SHT31;51087;55.718;21.122;2023-04-30T01:02:13;6.55;93.56
64499;SHT31;51087;55.718;21.122;2023-04-30T01:04:39;6.57;92.91
64499;SHT31;51087;55.718;21.122;2023-04-30T01:07:05;6.52;93.09
64499;SHT31;51087;55.718;21.122;2023-04-30T01:09:31;6.53;92.28
64499;SHT31;51087;55.718;21.122;2023-04-30T01:14:52;6.48;92.83
64499;SHT31;51087;55.718;21.122;2023-04-30T01:17:33;6.39;93.04
64499;SHT31;51087;55.718;21.122;2023-04-30T01:19:59;6.35;92.91
64499;SHT31;51087;55.718;21.122;2023-04-30T01:25:10;6.29;91.87
64499;SHT31;51087;55.718;21.122;2023-04-30T01:28:05;6.22;91.49
64499;SHT31;51087;55.718;21.122;2023-04-30T01:30:33;6.22;91.26
64499;SHT31;51087;55.718;21.122;2023-04-30T01:32:59;6.28;90.86
64499;SHT31;51087;55.718;21.122;2023-04-30T01:38:59;6.20;90.74
64499;SHT31;51087;55.718;21.122;2023-04-30T01:50:50;6.10;89.46
64499;SHT31;51087;55.718;21.122;2023-04-30T01:53:21;6.13;89.46
64499;SHT31;51087;55.718;21.122;2023-04-30T01:55:53;6.18;89.51
64499;SHT31;51087;55.718;21.122;2023-04-30T01:58:22;6.14;89.54
64499;SHT31;51087;55.718;21.122;2023-04-30T02:00:49;6.04;89.87
64499;SHT31;51087;55.718;21.122;2023-04-30T02:03:14;6.00;90.10
64499;SHT31;51087;55.718;21.122;2023-04-30T02:05:40;5.97;90.23
64499;SHT31;51087;55.718;21.122;2023-04-30T02:08:05;5.96;89.73
64499;SHT31;51087;55.718;21.122;2023-04-30T02:10:31;6.00;89.25
64499;SHT31;51087;55.718;21.122;2023-04-30T02:12:56;5.97;89.03
64499;SHT31;51087;55.718;21.122;2023-04-30T02:15:22;5.87;89.45
64499;SHT31;51087;55.718;21.122;2023-04-30T02:17:47;5.85;89.16
64499;SHT31;51087;55.718;21.122;2023-04-30T02:20:13;5.90;88.85
64499;SHT31;51087;55.718;21.122;2023-04-30T02:22:38;5.93;88.81
64499;SHT31;51087;55.718;21.122;2023-04-30T02:25:04;5.93;88.46
64499;SHT31;51087;55.718;21.122;2023-04-30T02:27:31;5.81;88.64
64499;SHT31;51087;55.718;21.122;2023-04-30T02:29:57;5.87;88.30
64499;SHT31;51087;55.718;21.122;2023-04-30T02:32:22;6.01;87.60
64499;SHT31;51087;55.718;21.122;2023-04-30T02:34:48;5.96;87.87
64499;SHT31;51087;55.718;21.122;2023-04-30T02:37:14;5.96;87.94
64499;SHT31;51087;55.718;21.122;2023-04-30T02:39:39;6.01;87.77
64499;SHT31;51087;55.718;21.122;2023-04-30T02:42:05;6.00;87.85
64499;SHT31;51087;55.718;21.122;2023-04-30T02:44:32;6.08;87.11
64499;SHT31;51087;55.718;21.122;2023-04-30T02:46:57;6.04;87.32
64499;SHT31;51087;55.718;21.122;2023-04-30T02:49:23;5.99;87.53
64499;SHT31;51087;55.718;21.122;2023-04-30T02:51:48;5.99;87.08
64499;SHT31;51087;55.718;21.122;2023-04-30T02:54:14;5.93;87.48
64499;SHT31;51087;55.718;21.122;2023-04-30T02:56:39;5.99;87.08
64499;SHT31;51087;55.718;21.122;2023-04-30T02:59:04;5.91;87.68
64499;SHT31;51087;55.718;21.122;2023-04-30T03:01:30;5.91;87.68
64499;SHT31;51087;55.718;21.122;2023-04-30T03:03:55;5.90;87.81
64499;SHT31;51087;55.718;21.122;2023-04-30T03:06:22;5.90;87.95
64499;SHT31;51087;55.718;21.122;2023-04-30T03:08:47;5.97;87.36
64499;SHT31;51087;55.718;21.122;2023-04-30T03:11:13;6.00;87.49
64499;SHT31;51087;55.718;21.122;2023-04-30T03:13:38;5.87;88.11
64499;SHT31;51087;55.718;21.122;2023-04-30T03:16:05;5.79;88.33
64499;SHT31;51087;55.718;21.122;2023-04-30T03:18:31;5.79;88.45
64499;SHT31;51087;55.718;21.122;2023-04-30T03:20:57;5.79;88.65
64499;SHT31;51087;55.718;21.122;2023-04-30T03:23:25;5.85;88.68
64499;SHT31;51087;55.718;21.122;2023-04-30T03:25:51;5.85;88.45
64499;SHT31;51087;55.718;21.122;2023-04-30T03:28:16;5.80;88.71
64499;SHT31;51087;55.718;21.122;2023-04-30T03:30:43;5.90;88.00
64499;SHT31;51087;55.718;21.122;2023-04-30T03:33:08;5.79;88.58
64499;SHT31;51087;55.718;21.122;2023-04-30T03:35:34;5.72;89.03
64499;SHT31;51087;55.718;21.122;2023-04-30T03:38:00;5.70;89.12
64499;SHT31;51087;55.718;21.122;2023-04-30T03:40:25;5.67;89.22
64499;SHT31;51087;55.718;21.122;2023-04-30T03:42:51;5.76;88.73
64499;SHT31;51087;55.718;21.122;2023-04-30T03:45:16;5.85;88.40
64499;SHT31;51087;55.718;21.122;2023-04-30T03:47:42;5.79;88.53
64499;SHT31;51087;55.718;21.122;2023-04-30T03:50:08;5.83;88.72
64499;SHT31;51087;55.718;21.122;2023-04-30T03:52:34;5.83;88.43
64499;SHT31;51087;55.718;21.122;2023-04-30T03:55:03;5.90;88.12
64499;SHT31;51087;55.718;21.122;2023-04-30T03:57:29;5.99;87.93
64499;SHT31;51087;55.718;21.122;2023-04-30T03:59:55;5.96;87.93
64499;SHT31;51087;55.718;21.122;2023-04-30T04:02:21;5.97;87.76
64499;SHT31;51087;55.718;21.122;2023-04-30T04:04:46;5.93;87.90
64499;SHT31;51087;55.718;21.122;2023-04-30T04:07:12;5.97;87.40
64499;SHT31;51087;55.718;21.122;2023-04-30T04:09:38;6.03;87.46
64499;SHT31;51087;55.718;21.122;2023-04-30T04:12:03;6.07;87.33
64499;SHT31;51087;55.718;21.122;2023-04-30T04:14:29;6.06;87.23
64499;SHT31;51087;55.718;21.122;2023-04-30T04:16:55;6.08;86.97
64499;SHT31;51087;55.718;21.122;2023-04-30T04:19:22;6.18;86.65
64499;SHT31;51087;55.718;21.122;2023-04-30T04:21:47;6.17;86.99
64499;SHT31;51087;55.718;21.122;2023-04-30T04:24:13;6.24;86.79
64499;SHT31;51087;55.718;21.122;2023-04-30T04:26:38;6.37;85.46
64499;SHT31;51087;55.718;21.122;2023-04-30T04:29:04;6.39;85.48
64499;SHT31;51087;55.718;21.122;2023-04-30T04:31:30;6.39;85.38
64499;SHT31;51087;55.718;21.122;2023-04-30T04:33:58;6.44;84.74
64499;SHT31;51087;55.718;21.122;2023-04-30T04:36:25;6.52;84.68
64499;SHT31;51087;55.718;21.122;2023-04-30T04:38:53;6.62;84.34
64499;SHT31;51087;55.718;21.122;2023-04-30T04:41:18;6.57;84.62
64499;SHT31;51087;55.718;21.122;2023-04-30T04:43:44;6.57;84.73
64499;SHT31;51087;55.718;21.122;2023-04-30T04:46:10;6.61;83.96
64499;SHT31;51087;55.718;21.122;2023-04-30T04:48:35;6.69;83.65
64499;SHT31;51087;55.718;21.122;2023-04-30T04:51:00;6.71;82.95
64499;SHT31;51087;55.718;21.122;2023-04-30T04:53:26;6.77;82.83
64499;SHT31;51087;55.718;21.122;2023-04-30T04:55:51;6.82;82.46
64499;SHT31;51087;55.718;21.122;2023-04-30T04:58:17;6.89;82.43
64499;SHT31;51087;55.718;21.122;2023-04-30T05:00:43;6.82;83.06
64499;SHT31;51087;55.718;21.122;2023-04-30T05:03:08;6.80;83.43
64499;SHT31;51087;55.718;21.122;2023-04-30T05:05:34;6.89;83.00
64499;SHT31;51087;55.718;21.122;2023-04-30T05:07:59;7.00;82.36
64499;SHT31;51087;55.718;21.122;2023-04-30T05:10:25;7.05;82.50
64499;SHT31;51087;55.718;21.122;2023-04-30T05:12:50;7.01;82.91
64499;SHT31;51087;55.718;21.122;2023-04-30T05:15:16;7.04;82.54
64499;SHT31;51087;55.718;21.122;2023-04-30T05:17:41;7.13;82.46
64499;SHT31;51087;55.718;21.122;2023-04-30T05:20:07;7.15;81.51
64499;SHT31;51087;55.718;21.122;2023-04-30T05:22:33;7.21;81.58
64499;SHT31;51087;55.718;21.122;2023-04-30T05:24:58;7.24;81.36
64499;SHT31;51087;55.718;21.122;2023-04-30T05:27:24;7.24;81.69
64499;SHT31;51087;55.718;21.122;2023-04-30T05:29:50;7.24;80.90
64499;SHT31;51087;55.718;21.122;2023-04-30T05:32:15;7.30;80.21
64499;SHT31;51087;55.718;21.122;2023-04-30T05:34:41;7.34;79.94
64499;SHT31;51087;55.718;21.122;2023-04-30T05:37:06;7.39;78.66
64499;SHT31;51087;55.718;21.122;2023-04-30T05:39:32;7.39;78.88
64499;SHT31;51087;55.718;21.122;2023-04-30T05:41:57;7.48;78.51
64499;SHT31;51087;55.718;21.122;2023-04-30T05:44:22;7.49;78.95
64499;SHT31;51087;55.718;21.122;2023-04-30T05:46:48;7.52;79.11
64499;SHT31;51087;55.718;21.122;2023-04-30T05:49:13;7.61;78.31
64499;SHT31;51087;55.718;21.122;2023-04-30T05:51:39;7.66;78.18
64499;SHT31;51087;55.718;21.122;2023-04-30T05:54:04;7.70;77.51
64499;SHT31;51087;55.718;21.122;2023-04-30T05:56:30;7.70;78.01
64499;SHT31;51087;55.718;21.122;2023-04-30T05:58:55;7.73;77.40
64499;SHT31;51087;55.718;21.122;2023-04-30T06:01:21;7.79;76.45
64499;SHT31;51087;55.718;21.122;2023-04-30T06:03:47;7.79;75.30
64499;SHT31;51087;55.718;21.122;2023-04-30T06:06:12;7.76;75.71
64499;SHT31;51087;55.718;21.122;2023-04-30T06:08:38;7.79;75.83
64499;SHT31;51087;55.718;21.122;2023-04-30T06:11:06;7.80;75.66
64499;SHT31;51087;55.718;21.122;2023-04-30T06:13:33;7.85;75.70
64499;SHT31;51087;55.718;21.122;2023-04-30T06:15:58;7.97;74.26
64499;SHT31;51087;55.718;21.122;2023-04-30T06:18:24;7.97;74.30
64499;SHT31;51087;55.718;21.122;2023-04-30T06:20:49;8.00;74.66
64499;SHT31;51087;55.718;21.122;2023-04-30T06:23:15;8.10;73.23
64499;SHT31;51087;55.718;21.122;2023-04-30T06:25:40;8.11;72.07
64499;SHT31;51087;55.718;21.122;2023-04-30T06:28:05;8.14;69.81
64499;SHT31;51087;55.718;21.122;2023-04-30T06:30:33;8.10;71.08
64499;SHT31;51087;55.718;21.122;2023-04-30T06:32:59;8.20;71.06
64499;SHT31;51087;55.718;21.122;2023-04-30T06:35:24;8.27;70.82
64499;SHT31;51087;55.718;21.122;2023-04-30T06:37:50;8.35;71.43
64499;SHT31;51087;55.718;21.122;2023-04-30T06:40:15;8.34;71.87
64499;SHT31;51087;55.718;21.122;2023-04-30T06:42:41;8.33;70.20
64499;SHT31;51087;55.718;21.122;2023-04-30T06:45:07;8.30;71.58
64499;SHT31;51087;55.718;21.122;2023-04-30T06:47:33;8.25;68.28
64499;SHT31;51087;55.718;21.122;2023-04-30T06:50:03;8.31;70.88
64499;SHT31;51087;55.718;21.122;2023-04-30T06:52:29;8.30;71.19
64499;SHT31;51087;55.718;21.122;2023-04-30T06:54:55;8.27;71.36
64499;SHT31;51087;55.718;21.122;2023-04-30T06:57:20;8.35;71.16
64499;SHT31;51087;55.718;21.122;2023-04-30T06:59:46;8.46;70.61
64499;SHT31;51087;55.718;21.122;2023-04-30T07:02:11;8.48;70.80
64499;SHT31;51087;55.718;21.122;2023-04-30T07:04:37;8.38;67.91
64499;SHT31;51087;55.718;21.122;2023-04-30T07:07:02;8.38;68.50
64499;SHT31;51087;55.718;21.122;2023-04-30T07:09:28;8.37;68.95
64499;SHT31;51087;55.718;21.122;2023-04-30T07:11:54;8.42;68.25
64499;SHT31;51087;55.718;21.122;2023-04-30T07:14:20;8.44;69.66
64499;SHT31;51087;55.718;21.122;2023-04-30T07:16:45;8.42;70.44
64499;SHT31;51087;55.718;21.122;2023-04-30T07:19:11;8.41;70.88
64499;SHT31;51087;55.718;21.122;2023-04-30T07:21:37;8.45;72.01
64499;SHT31;51087;55.718;21.122;2023-04-30T07:24:02;8.42;72.32
64499;SHT31;51087;55.718;21.122;2023-04-30T07:26:28;8.42;71.29
64499;SHT31;51087;55.718;21.122;2023-04-30T07:28:54;8.48;72.75
64499;SHT31;51087;55.718;21.122;2023-04-30T07:31:19;8.44;73.71
64499;SHT31;51087;55.718;21.122;2023-04-30T07:33:45;8.37;74.33
64499;SHT31;51087;55.718;21.122;2023-04-30T07:36:10;8.33;74.24
64499;SHT31;51087;55.718;21.122;2023-04-30T07:38:36;8.33;75.87
64499;SHT31;51087;55.718;21.122;2023-04-30T07:41:01;8.20;74.45
64499;SHT31;51087;55.718;21.122;2023-04-30T07:43:27;8.23;75.09
64499;SHT31;51087;55.718;21.122;2023-04-30T07:45:53;8.23;75.69
64499;SHT31;51087;55.718;21.122;2023-04-30T07:48:19;8.40;74.92
64499;SHT31;51087;55.718;21.122;2023-04-30T07:50:47;8.35;75.39
64499;SHT31;51087;55.718;21.122;2023-04-30T07:53:12;8.45;75.57
64499;SHT31;51087;55.718;21.122;2023-04-30T07:55:38;8.38;76.47
64499;SHT31;51087;55.718;21.122;2023-04-30T07:58:03;8.40;77.55
64499;SHT31;51087;55.718;21.122;2023-04-30T08:00:29;8.42;77.26
64499;SHT31;51087;55.718;21.122;2023-04-30T08:02:55;8.44;77.33
64499;SHT31;51087;55.718;21.122;2023-04-30T08:05:20;8.52;77.42
64499;SHT31;51087;55.718;21.122;2023-04-30T08:07:46;8.42;76.27
64499;SHT31;51087;55.718;21.122;2023-04-30T08:10:11;8.45;77.69
64499;SHT31;51087;55.718;21.122;2023-04-30T08:12:37;8.51;78.16
64499;SHT31;51087;55.718;21.122;2023-04-30T08:15:04;8.51;78.77
64499;SHT31;51087;55.718;21.122;2023-04-30T08:17:31;8.53;78.11
64499;SHT31;51087;55.718;21.122;2023-04-30T08:19:56;8.48;78.68
64499;SHT31;51087;55.718;21.122;2023-04-30T08:22:22;8.52;79.34
64499;SHT31;51087;55.718;21.122;2023-04-30T08:24:48;8.62;78.84
64499;SHT31;51087;55.718;21.122;2023-04-30T08:27:14;8.58;78.55
64499;SHT31;51087;55.718;21.122;2023-04-30T08:29:40;8.65;78.84
64499;SHT31;51087;55.718;21.122;2023-04-30T08:32:05;8.61;79.03
64499;SHT31;51087;55.718;21.122;2023-04-30T08:34:31;8.45;78.79
64499;SHT31;51087;55.718;21.122;2023-04-30T08:36:56;8.62;78.90
64499;SHT31;51087;55.718;21.122;2023-04-30T08:39:23;8.77;78.60
64499;SHT31;51087;55.718;21.122;2023-04-30T08:41:54;9.51;77.43
64499;SHT31;51087;55.718;21.122;2023-04-30T08:44:21;10.67;73.69
64499;SHT31;51087;55.718;21.122;2023-04-30T08:46:53;11.72;70.42
64499;SHT31;51087;55.718;21.122;2023-04-30T08:49:21;12.95;65.14
64499;SHT31;51087;55.718;21.122;2023-04-30T08:51:47;13.19;64.76
64499;SHT31;51087;55.718;21.122;2023-04-30T08:54:13;13.70;63.52
64499;SHT31;51087;55.718;21.122;2023-04-30T08:56:39;13.19;64.23
64499;SHT31;51087;55.718;21.122;2023-04-30T08:59:05;13.44;63.16
64499;SHT31;51087;55.718;21.122;2023-04-30T09:01:33;13.43;63.27
64499;SHT31;51087;55.718;21.122;2023-04-30T09:03:59;13.37;63.75
64499;SHT31;51087;55.718;21.122;2023-04-30T09:06:24;13.64;63.93
64499;SHT31;51087;55.718;21.122;2023-04-30T09:08:49;13.84;63.10
64499;SHT31;51087;55.718;21.122;2023-04-30T09:11:27;14.00;61.03
64499;SHT31;51087;55.718;21.122;2023-04-30T09:13:57;13.18;63.34
64499;SHT31;51087;55.718;21.122;2023-04-30T09:16:24;14.39;61.54
64499;SHT31;51087;55.718;21.122;2023-04-30T09:18:50;16.01;57.41
64499;SHT31;51087;55.718;21.122;2023-04-30T09:21:16;17.75;52.92
64499;SHT31;51087;55.718;21.122;2023-04-30T09:24:01;19.00;48.64
64499;SHT31;51087;55.718;21.122;2023-04-30T09:26:35;19.13;48.44
64499;SHT31;51087;55.718;21.122;2023-04-30T09:29:01;21.02;44.99
64499;SHT31;51087;55.718;21.122;2023-04-30T09:31:32;19.61;46.20
64499;SHT31;51087;55.718;21.122;2023-04-30T09:33:59;20.18;45.40
64499;SHT31;51087;55.718;21.122;2023-04-30T09:36:24;20.64;45.44
64499;SHT31;51087;55.718;21.122;2023-04-30T09:38:50;20.37;45.86
64499;SHT31;51087;55.718;21.122;2023-04-30T09:41:26;21.04;45.06
64499;SHT31;51087;55.718;21.122;2023-04-30T09:43:55;19.65;47.19
64499;SHT31;51087;55.718;21.122;2023-04-30T09:46:29;20.95;44.12
64499;SHT31;51087;55.718;21.122;2023-04-30T09:48:56;19.27;47.21
64499;SHT31;51087;55.718;21.122;2023-04-30T09:51:22;19.82;45.86
64499;SHT31;51087;55.718;21.122;2023-04-30T09:53:50;20.13;46.47
64499;SHT31;51087;55.718;21.122;2023-04-30T09:56:21;19.89;46.22
64499;SHT31;51087;55.718;21.122;2023-04-30T09:58:54;17.62;50.57
64499;SHT31;51087;55.718;21.122;2023-04-30T10:01:21;17.70;51.24
64499;SHT31;51087;55.718;21.122;2023-04-30T10:03:47;17.43;51.76
64499;SHT31;51087;55.718;21.122;2023-04-30T10:06:14;17.70;51.67
64499;SHT31;51087;55.718;21.122;2023-04-30T10:08:42;18.87;49.05
64499;SHT31;51087;55.718;21.122;2023-04-30T10:11:10;18.47;49.41
64499;SHT31;51087;55.718;21.122;2023-04-30T10:14:11;18.25;49.44
64499;SHT31;51087;55.718;21.122;2023-04-30T10:16:52;18.75;49.07
64499;SHT31;51087;55.718;21.122;2023-04-30T10:19:24;19.73;45.04
64499;SHT31;51087;55.718;21.122;2023-04-30T10:21:50;18.68;47.23
64499;SHT31;51087;55.718;21.122;2023-04-30T10:24:17;18.66;48.39
64499;SHT31;51087;55.718;21.122;2023-04-30T10:26:44;18.35;47.89
64499;SHT31;51087;55.718;21.122;2023-04-30T10:29:15;19.38;45.49
64499;SHT31;51087;55.718;21.122;2023-04-30T10:31:43;20.09;44.75
64499;SHT31;51087;55.718;21.122;2023-04-30T10:34:45;21.18;43.13
64499;SHT31;51087;55.718;21.122;2023-04-30T10:37:26;21.31;43.64
64499;SHT31;51087;55.718;21.122;2023-04-30T10:39:54;22.47;41.12
64499;SHT31;51087;55.718;21.122;2023-04-30T10:42:20;20.44;43.98
64499;SHT31;51087;55.718;21.122;2023-04-30T10:44:46;20.75;44.24
64499;SHT31;51087;55.718;21.122;2023-04-30T10:47:12;21.51;43.83
64499;SHT31;51087;55.718;21.122;2023-04-30T10:49:38;21.64;42.04
64499;SHT31;51087;55.718;21.122;2023-04-30T10:52:09;21.46;42.98
64499;SHT31;51087;55.718;21.122;2023-04-30T10:54:36;22.71;41.01
64499;SHT31;51087;55.718;21.122;2023-04-30T10:57:11;23.54;40.39
64499;SHT31;51087;55.718;21.122;2023-04-30T10:59:41;22.97;38.41
64499;SHT31;51087;55.718;21.122;2023-04-30T11:02:09;26.45;35.03
64499;SHT31;51087;55.718;21.122;2023-04-30T11:05:27;23.97;38.08
64499;SHT31;51087;55.718;21.122;2023-04-30T11:07:56;21.23;44.02
64499;SHT31;51087;55.718;21.122;2023-04-30T11:10:24;19.97;45.63
64499;SHT31;51087;55.718;21.122;2023-04-30T11:12:52;21.44;43.79
64499;SHT31;51087;55.718;21.122;2023-04-30T11:15:26;20.12;44.19
64499;SHT31;51087;55.718;21.122;2023-04-30T11:17:56;18.52;46.96
64499;SHT31;51087;55.718;21.122;2023-04-30T11:20:23;20.67;44.28
64499;SHT31;51087;55.718;21.122;2023-04-30T11:23:10;22.40;40.62
64499;SHT31;51087;55.718;21.122;2023-04-30T11:25:43;21.47;41.35
64499;SHT31;51087;55.718;21.122;2023-04-30T11:28:22;21.40;41.36
64499;SHT31;51087;55.718;21.122;2023-04-30T11:33:18;18.65;48.58
64499;SHT31;51087;55.718;21.122;2023-04-30T11:35:44;20.16;44.90
64499;SHT31;51087;55.718;21.122;2023-04-30T11:38:11;20.89;43.89
64499;SHT31;51087;55.718;21.122;2023-04-30T11:40:38;22.97;40.56
64499;SHT31;51087;55.718;21.122;2023-04-30T11:43:04;24.02;38.53
64499;SHT31;51087;55.718;21.122;2023-04-30T11:45:29;23.36;38.31
64499;SHT31;51087;55.718;21.122;2023-04-30T11:47:56;22.95;38.54
64499;SHT31;51087;55.718;21.122;2023-04-30T11:50:23;20.76;43.59
64499;SHT31;51087;55.718;21.122;2023-04-30T11:52:54;19.24;45.27
64499;SHT31;51087;55.718;21.122;2023-04-30T11:55:22;20.12;44.62
64499;SHT31;51087;55.718;21.122;2023-04-30T11:57:50;20.67;42.61
64499;SHT31;51087;55.718;21.122;2023-04-30T12:00:38;20.47;42.39
64499;SHT31;51087;55.718;21.122;2023-04-30T12:03:03;21.64;41.54
64499;SHT31;51087;55.718;21.122;2023-04-30T12:05:28;20.78;41.85
64499;SHT31;51087;55.718;21.122;2023-04-30T12:07:59;20.41;43.72
64499;SHT31;51087;55.718;21.122;2023-04-30T12:10:25;21.81;40.79
64499;SHT31;51087;55.718;21.122;2023-04-30T12:12:52;19.75;43.67
64499;SHT31;51087;55.718;21.122;2023-04-30T12:15:23;20.59;42.59
64499;SHT31;51087;55.718;21.122;2023-04-30T12:17:53;22.05;40.35
64499;SHT31;51087;55.718;21.122;2023-04-30T12:20:19;22.85;38.66
64499;SHT31;51087;55.718;21.122;2023-04-30T12:22:46;21.03;40.44
64499;SHT31;51087;55.718;21.122;2023-04-30T12:25:19;19.35;43.87
64499;SHT31;51087;55.718;21.122;2023-04-30T12:27:47;21.09;41.09
64499;SHT31;51087;55.718;21.122;2023-04-30T12:30:13;19.85;42.14
64499;SHT31;51087;55.718;21.122;2023-04-30T12:32:48;18.35;46.36
64499;SHT31;51087;55.718;21.122;2023-04-30T12:35:16;20.23;42.57
64499;SHT31;51087;55.718;21.122;2023-04-30T12:37:45;19.44;44.28
64499;SHT31;51087;55.718;21.122;2023-04-30T12:40:12;20.49;41.34
64499;SHT31;51087;55.718;21.122;2023-04-30T12:42:40;20.75;42.52
64499;SHT31;51087;55.718;21.122;2023-04-30T12:45:06;21.10;41.72
64499;SHT31;51087;55.718;21.122;2023-04-30T12:47:31;20.63;41.29
64499;SHT31;51087;55.718;21.122;2023-04-30T12:49:57;21.50;40.35
64499;SHT31;51087;55.718;21.122;2023-04-30T12:52:24;21.37;40.40
64499;SHT31;51087;55.718;21.122;2023-04-30T12:54:50;21.12;40.94
64499;SHT31;51087;55.718;21.122;2023-04-30T12:57:16;20.41;41.26
64499;SHT31;51087;55.718;21.122;2023-04-30T13:02:16;19.25;43.23
64499;SHT31;51087;55.718;21.122;2023-04-30T13:04:42;19.76;43.71
64499;SHT31;51087;55.718;21.122;2023-04-30T13:07:08;20.00;43.33
64499;SHT31;51087;55.718;21.122;2023-04-30T13:09:35;19.18;44.57
64499;SHT31;51087;55.718;21.122;2023-04-30T13:12:01;20.16;44.04
64499;SHT31;51087;55.718;21.122;2023-04-30T13:14:26;19.54;44.20
64499;SHT31;51087;55.718;21.122;2023-04-30T13:16:52;20.69;41.92
64499;SHT31;51087;55.718;21.122;2023-04-30T13:19:18;21.19;41.11
64499;SHT31;51087;55.718;21.122;2023-04-30T13:21:44;20.58;41.22
64499;SHT31;51087;55.718;21.122;2023-04-30T13:24:09;21.47;40.48
64499;SHT31;51087;55.718;21.122;2023-04-30T13:26:34;20.16;41.50
64499;SHT31;51087;55.718;21.122;2023-04-30T13:29:00;19.54;40.29
64499;SHT31;51087;55.718;21.122;2023-04-30T13:31:26;19.32;41.89
64499;SHT31;51087;55.718;21.122;2023-04-30T13:33:51;18.27;42.61
64499;SHT31;51087;55.718;21.122;2023-04-30T13:36:19;18.51;43.20
64499;SHT31;51087;55.718;21.122;2023-04-30T13:38:45;18.95;42.21
64499;SHT31;51087;55.718;21.122;2023-04-30T13:41:11;19.75;40.06
64499;SHT31;51087;55.718;21.122;2023-04-30T13:43:36;18.31;42.02
64499;SHT31;51087;55.718;21.122;2023-04-30T13:46:03;18.41;42.85
64499;SHT31;51087;55.718;21.122;2023-04-30T13:48:29;17.58;44.20
64499;SHT31;51087;55.718;21.122;2023-04-30T13:50:54;16.53;45.48
64499;SHT31;51087;55.718;21.122;2023-04-30T13:53:20;15.73;47.01
64499;SHT31;51087;55.718;21.122;2023-04-30T13:55:45;15.56;48.60
64499;SHT31;51087;55.718;21.122;2023-04-30T13:58:11;16.44;46.34
64499;SHT31;51087;55.718;21.122;2023-04-30T14:00:37;14.74;50.12
64499;SHT31;51087;55.718;21.122;2023-04-30T14:03:02;14.77;50.90
64499;SHT31;51087;55.718;21.122;2023-04-30T14:05:28;14.46;51.84
64499;SHT31;51087;55.718;21.122;2023-04-30T14:07:54;15.40;49.51
64499;SHT31;51087;55.718;21.122;2023-04-30T14:10:19;15.63;49.07
64499;SHT31;51087;55.718;21.122;2023-04-30T14:12:45;15.43;50.29
64499;SHT31;51087;55.718;21.122;2023-04-30T14:15:10;14.94;51.18
64499;SHT31;51087;55.718;21.122;2023-04-30T14:17:36;14.28;53.14
64499;SHT31;51087;55.718;21.122;2023-04-30T14:20:01;14.22;52.38
64499;SHT31;51087;55.718;21.122;2023-04-30T14:22:28;14.84;50.13
64499;SHT31;51087;55.718;21.122;2023-04-30T14:24:53;14.61;51.25
64499;SHT31;51087;55.718;21.122;2023-04-30T14:27:19;14.64;52.70
64499;SHT31;51087;55.718;21.122;2023-04-30T14:29:45;14.77;52.53
64499;SHT31;51087;55.718;21.122;2023-04-30T14:32:12;14.89;52.74
64499;SHT31;51087;55.718;21.122;2023-04-30T14:34:38;14.73;52.45
64499;SHT31;51087;55.718;21.122;2023-04-30T14:37:03;14.04;55.10
64499;SHT31;51087;55.718;21.122;2023-04-30T14:39:29;14.70;54.32
64499;SHT31;51087;55.718;21.122;2023-04-30T14:41:55;15.29;53.18
64499;SHT31;51087;55.718;21.122;2023-04-30T14:44:21;15.71;51.75
64499;SHT31;51087;55.718;21.122;2023-04-30T14:46:48;15.16;52.13
64499;SHT31;51087;55.718;21.122;2023-04-30T14:49:14;14.50;54.60
64499;SHT31;51087;55.718;21.122;2023-04-30T14:51:39;14.71;54.04
64499;SHT31;51087;55.718;21.122;2023-04-30T14:54:05;14.95;52.97
64499;SHT31;51087;55.718;21.122;2023-04-30T14:56:31;14.57;54.48
64499;SHT31;51087;55.718;21.122;2023-04-30T14:58:56;14.33;54.91
64499;SHT31;51087;55.718;21.122;2023-04-30T15:01:22;14.08;56.21
64499;SHT31;51087;55.718;21.122;2023-04-30T15:03:47;14.89;54.66
64499;SHT31;51087;55.718;21.122;2023-04-30T15:06:13;15.01;53.39
64499;SHT31;51087;55.718;21.122;2023-04-30T15:08:38;14.74;53.99
64499;SHT31;51087;55.718;21.122;2023-04-30T15:11:05;15.38;52.68
64499;SHT31;51087;55.718;21.122;2023-04-30T15:13:31;14.68;54.68
64499;SHT31;51087;55.718;21.122;2023-04-30T15:15:57;15.11;53.15
64499;SHT31;51087;55.718;21.122;2023-04-30T15:18:22;14.92;54.08
64499;SHT31;51087;55.718;21.122;2023-04-30T15:20:48;14.84;54.05
64499;SHT31;51087;55.718;21.122;2023-04-30T15:23:13;14.50;54.68
64499;SHT31;51087;55.718;21.122;2023-04-30T15:25:38;13.94;56.13
64499;SHT31;51087;55.718;21.122;2023-04-30T15:28:04;14.28;56.34
64499;SHT31;51087;55.718;21.122;2023-04-30T15:30:30;15.04;54.04
64499;SHT31;51087;55.718;21.122;2023-04-30T15:32:56;14.98;54.37
64499;SHT31;51087;55.718;21.122;2023-04-30T15:35:21;15.25;54.84
64499;SHT31;51087;55.718;21.122;2023-04-30T15:37:47;15.81;52.00
64499;SHT31;51087;55.718;21.122;2023-04-30T15:40:12;14.85;55.22
64499;SHT31;51087;55.718;21.122;2023-04-30T15:42:39;15.02;54.61
64499;SHT31;51087;55.718;21.122;2023-04-30T15:45:06;14.40;55.85
64499;SHT31;51087;55.718;21.122;2023-04-30T15:47:31;14.84;55.34